Time;durP1;ratioP1;P1;durP2;ratioP2;P2;SDS_P1;SDS_P2;PMS_P1;PMS_P2;Temp;Humidity;BMP_temperature;BMP_pressure;BME280_temperature;BME280_humidity;BME280_pressure;Samples;Min_cycle;Max_cycle;Signal;HPM_P1;HPM_P2
2022/01/15 00:02:24;;;;;;;;;;;;;;;3.19;100.00;99198.94;1628590;86;24775;-84
2022/01/15 00:04:50;;;;;;;;;;;;;;;3.16;100.00;99194.72;1635104;87;21972;-84
2022/01/15 00:07:16;;;;;;;;;;;;;;;3.15;100.00;99199.92;1633138;86;26219;-85
2022/01/15 00:09:44;;;;;;;;;;;;;;;3.15;100.00;99200.77;1612675;86;24473;-84
2022/01/15 00:12:11;;;;;;;;;;;;;;;3.16;100.00;99196.45;1602623;88;20245;-84
2022/01/15 00:14:40;;;;;;;;;;;;;;;3.15;100.00;99195.60;1630216;86;24742;-83
2022/01/15 00:17:15;;;;;;;;;;;;;;;3.16;100.00;99197.75;1634433;86;21977;-83
2022/01/15 00:19:42;;;;;;;;;;;;;;;3.14;100.00;99200.36;1627302;87;26862;-83
2022/01/15 00:22:11;;;;;;;;;;;;;;;3.13;100.00;99199.11;1634783;87;24425;-83
2022/01/15 00:24:38;;;;;;;;;;;;;;;3.12;100.00;99193.52;1635616;87;20607;-84
2022/01/15 00:27:04;;;;;;;;;;;;;;;3.11;100.00;99194.44;1637937;85;24872;-84
2022/01/15 00:29:31;;;;;;;;;;;;;;;3.07;100.00;99194.95;1661338;85;22069;-83
2022/01/15 00:31:59;;;;;;;;;;;;;;;3.07;100.00;99195.39;1651357;84;26064;-84
2022/01/15 00:34:25;;;;;;;;;;;;;;;3.07;100.00;99198.83;1650373;84;24585;-83
2022/01/15 00:36:51;;;;;;;;;;;;;;;3.10;100.00;99196.17;1649863;85;20603;-84
2022/01/15 00:39:17;;;;;;;;;;;;;;;3.09;100.00;99194.47;1654243;86;24725;-84
2022/01/15 00:41:44;;;;;;;;;;;;;;;3.07;100.00;99189.78;1651812;86;21930;-84
2022/01/15 00:44:10;;;;;;;;;;;;;;;3.00;100.00;99184.84;1652743;85;26789;-84
2022/01/15 00:46:36;;;;;;;;;;;;;;;2.97;100.00;99193.95;1651098;85;24625;-84
2022/01/15 00:49:02;;;;;;;;;;;;;;;2.94;100.00;99196.19;1629382;87;20278;-84
2022/01/15 00:51:28;;;;;;;;;;;;;;;2.89;100.00;99188.53;1650391;85;24968;-83
2022/01/15 00:53:54;;;;;;;;;;;;;;;2.87;100.00;99204.55;1648576;86;21920;-83
2022/01/15 00:56:21;;;;;;;;;;;;;;;2.86;100.00;99205.88;1648576;86;26117;-84
2022/01/15 00:58:53;;;;;;;;;;;;;;;2.84;100.00;99204.61;1626036;86;24514;-84
2022/01/15 01:01:20;;;;;;;;;;;;;;;2.84;100.00;99202.47;1655329;84;20251;-86
2022/01/15 01:03:50;;;;;;;;;;;;;;;2.81;100.00;99202.56;1654207;85;24829;-86
2022/01/15 01:06:17;;;;;;;;;;;;;;;2.83;100.00;99201.65;1648229;84;22102;-86
2022/01/15 01:08:43;;;;;;;;;;;;;;;2.83;100.00;99197.77;1656159;84;25935;-86
2022/01/15 01:11:14;;;;;;;;;;;;;;;2.84;100.00;99199.44;1652754;85;24513;-85
2022/01/15 01:24:34;;;;;;;;;;;;;;;2.86;100.00;99211.89;1647565;86;24502;-84
2022/01/15 01:27:11;;;;;;;;;;;;;;;2.90;100.00;99211.36;1650524;85;20257;-85
2022/01/15 01:30:04;;;;;;;;;;;;;;;2.90;100.00;99213.94;1651947;86;24757;-85
2022/01/15 01:35:08;;;;;;;;;;;;;;;2.84;100.00;99212.36;1650118;85;26180;-85
2022/01/15 01:37:37;;;;;;;;;;;;;;;2.79;100.00;99219.39;1649836;86;24469;-85
2022/01/15 01:40:31;;;;;;;;;;;;;;;2.76;100.00;99215.61;1652357;85;20240;-84
2022/01/15 01:43:01;;;;;;;;;;;;;;;2.73;100.00;99213.09;1645537;86;24897;-84
2022/01/15 01:45:19;;;;;;;;;;;;;;;2.73;100.00;99215.67;1658221;85;21995;-85
2022/01/15 01:47:45;;;;;;;;;;;;;;;2.72;100.00;99216.59;1638090;85;25893;-85
2022/01/15 01:50:13;;;;;;;;;;;;;;;2.73;100.00;99205.34;1639517;86;24485;-85
2022/01/15 01:52:50;;;;;;;;;;;;;;;2.73;100.00;99204.05;1644885;86;20270;-86
2022/01/15 01:55:17;;;;;;;;;;;;;;;2.70;100.00;99201.55;1623077;86;25785;-85
2022/01/15 01:57:43;;;;;;;;;;;;;;;2.69;100.00;99205.02;1652361;86;22020;-85
2022/01/15 02:00:11;;;;;;;;;;;;;;;2.68;100.00;99206.34;1649789;85;26030;-84
2022/01/15 02:02:43;;;;;;;;;;;;;;;2.65;100.00;99207.73;1646172;85;24446;-85
2022/01/15 02:05:10;;;;;;;;;;;;;;;2.66;100.00;99210.72;1647216;86;20254;-83
2022/01/15 02:07:36;;;;;;;;;;;;;;;2.67;100.00;99208.11;1651441;85;24805;-84
2022/01/15 02:10:04;;;;;;;;;;;;;;;2.68;100.00;99211.07;1643995;85;21981;-84
2022/01/15 02:12:30;;;;;;;;;;;;;;;2.68;100.00;99213.66;1656004;85;26818;-83
2022/01/15 02:14:56;;;;;;;;;;;;;;;2.66;100.00;99210.72;1651250;85;25294;-83
2022/01/15 02:17:23;;;;;;;;;;;;;;;2.65;100.00;99209.87;1645621;86;20301;-83
2022/01/15 02:25:12;;;;;;;;;;;;;;;2.65;100.00;99209.87;1648921;86;26173;-83
2022/01/15 02:27:38;;;;;;;;;;;;;;;2.62;100.00;99203.47;1644813;85;25250;-83
2022/01/15 02:30:05;;;;;;;;;;;;;;;2.64;100.00;99203.00;1637567;87;20348;-83
2022/01/15 02:32:32;;;;;;;;;;;;;;;2.63;100.00;99206.47;1637335;86;24897;-83
2022/01/15 02:34:59;;;;;;;;;;;;;;;2.62;100.00;99208.64;1633084;85;21612;-83
2022/01/15 02:37:28;;;;;;;;;;;;;;;2.62;100.00;99211.70;1638685;85;25740;-83
2022/01/15 02:39:55;;;;;;;;;;;;;;;2.61;100.00;99218.59;1635808;85;24510;-83
2022/01/15 02:42:23;;;;;;;;;;;;;;;2.60;100.00;99219.48;1641399;85;20489;-83
2022/01/15 02:44:49;;;;;;;;;;;;;;;2.59;100.00;99220.36;1646273;86;24976;-83
2022/01/15 02:48:00;;;;;;;;;;;;;;;2.60;100.00;99220.77;1638042;86;20397;-83
2022/01/15 02:49:43;;;;;;;;;;;;;;;2.57;100.00;99218.69;1610635;86;26953;-83
2022/01/15 02:52:09;;;;;;;;;;;;;;;2.53;100.00;99216.19;1627148;86;20299;-84
2022/01/15 02:54:36;;;;;;;;;;;;;;;2.51;100.00;99214.08;1644838;86;20480;-83
2022/01/15 02:57:04;;;;;;;;;;;;;;;2.48;100.00;99223.21;1620805;87;24864;-83
2022/01/15 02:59:30;;;;;;;;;;;;;;;2.46;100.00;99218.52;1637479;86;21629;-83
2022/01/15 03:01:56;;;;;;;;;;;;;;;2.40;100.00;99222.53;1634078;87;26168;-83
2022/01/15 03:04:22;;;;;;;;;;;;;;;2.35;100.00;99217.08;1644596;85;25774;-83
2022/01/15 03:06:49;;;;;;;;;;;;;;;2.36;100.00;99217.48;1588327;89;20793;-83
2022/01/15 03:09:15;;;;;;;;;;;;;;;2.34;100.00;99216.70;1632236;86;24820;-84
2022/01/15 03:11:42;;;;;;;;;;;;;;;2.34;100.00;99220.57;1633696;87;22084;-84
2022/01/15 03:14:08;;;;;;;;;;;;;;;2.33;100.00;99222.74;1595736;88;26069;-84
2022/01/15 03:16:34;;;;;;;;;;;;;;;2.31;100.00;99224.50;1612383;87;24622;-84
2022/01/15 03:19:00;;;;;;;;;;;;;;;2.32;100.00;99232.66;1628162;86;20829;-84
2022/01/15 03:21:26;;;;;;;;;;;;;;;2.33;100.00;99227.47;1634275;87;24886;-84
2022/01/15 03:23:52;;;;;;;;;;;;;;;2.33;100.00;99222.30;1640063;86;21952;-83
2022/01/15 03:26:18;;;;;;;;;;;;;;;2.33;100.00;99224.03;1639839;87;26038;-84
2022/01/15 03:28:45;;;;;;;;;;;;;;;2.35;100.00;99216.63;1648812;85;20238;-83
2022/01/15 03:31:16;;;;;;;;;;;;;;;2.39;100.00;99223.89;1654644;84;20302;-83
2022/01/15 03:33:43;;;;;;;;;;;;;;;2.36;100.00;99226.53;1646598;84;24826;-84
2022/01/15 03:36:09;;;;;;;;;;;;;;;2.38;100.00;99226.06;1652944;84;21967;-83
2022/01/15 03:38:35;;;;;;;;;;;;;;;2.36;100.00;99228.67;1620361;86;26008;-83
2022/01/15 03:41:01;;;;;;;;;;;;;;;2.37;100.00;99228.23;1634071;85;24431;-83
2022/01/15 03:43:33;;;;;;;;;;;;;;;2.34;100.00;99233.05;1645864;85;20310;-83
2022/01/15 03:45:59;;;;;;;;;;;;;;;2.38;100.00;99232.08;1657550;85;24595;-83
2022/01/15 03:48:25;;;;;;;;;;;;;;;2.41;100.00;99229.84;1657074;85;22001;-84
2022/01/15 03:50:52;;;;;;;;;;;;;;;2.37;100.00;99227.79;1605236;87;26061;-83
2022/01/15 03:53:20;;;;;;;;;;;;;;;2.36;100.00;99225.23;1646070;86;24542;-83
2022/01/15 03:55:46;;;;;;;;;;;;;;;2.39;100.00;99232.48;1651068;85;20445;-83
2022/01/15 03:58:12;;;;;;;;;;;;;;;2.39;100.00;99230.34;1656765;86;24689;-83
2022/01/15 04:00:38;;;;;;;;;;;;;;;2.38;100.00;99229.94;1633830;87;21900;-83
2022/01/15 04:03:04;;;;;;;;;;;;;;;2.34;100.00;99227.03;1641590;85;26088;-83
2022/01/15 04:05:31;;;;;;;;;;;;;;;2.31;100.00;99228.38;1640304;84;20321;-83
2022/01/15 04:07:57;;;;;;;;;;;;;;;2.31;100.00;99229.66;1651657;85;20488;-83
2022/01/15 04:10:23;;;;;;;;;;;;;;;2.30;100.00;99227.52;1653547;85;24703;-83
2022/01/15 04:12:49;;;;;;;;;;;;;;;2.28;100.00;99229.31;1651337;85;22063;-83
2022/01/15 04:15:17;;;;;;;;;;;;;;;2.29;100.00;99223.70;1655003;84;26039;-83
2022/01/15 04:17:49;;;;;;;;;;;;;;;2.30;100.00;99233.98;1650664;85;25294;-83
2022/01/15 04:20:19;;;;;;;;;;;;;;;2.28;100.00;99235.77;1616861;86;20563;-83
2022/01/15 04:22:45;;;;;;;;;;;;;;;2.25;100.00;99238.41;1626011;85;24943;-83
2022/01/15 04:25:11;;;;;;;;;;;;;;;2.26;100.00;99239.25;1647664;85;21947;-83
2022/01/15 04:27:38;;;;;;;;;;;;;;;2.21;100.00;99244.53;1652095;84;26184;-83
2022/01/15 04:30:06;;;;;;;;;;;;;;;2.21;100.00;99247.55;1645473;86;24422;-83
2022/01/15 04:32:32;;;;;;;;;;;;;;;2.18;100.00;99249.78;1648582;86;20485;-83
2022/01/15 04:34:59;;;;;;;;;;;;;;;2.18;100.00;99248.93;1645043;86;24902;-83
2022/01/15 04:37:34;;;;;;;;;;;;;;;2.18;100.00;99242.48;1605367;88;22157;-83
2022/01/15 04:39:54;;;;;;;;;;;;;;;2.19;100.00;99248.02;1606656;86;26036;-83
2022/01/15 04:42:25;;;;;;;;;;;;;;;2.13;100.00;99243.84;1605163;87;25179;-83
2022/01/15 04:44:51;;;;;;;;;;;;;;;2.07;100.00;99234.98;1621817;86;20257;-82
2022/01/15 04:47:17;;;;;;;;;;;;;;;2.02;100.00;99238.93;1646635;86;24809;-82
2022/01/15 04:49:43;;;;;;;;;;;;;;;1.95;100.00;99235.25;1646242;85;21959;-83
2022/01/15 04:52:15;;;;;;;;;;;;;;;1.91;100.00;99234.45;1639022;86;26775;-82
2022/01/15 04:54:41;;;;;;;;;;;;;;;1.88;100.00;99233.23;1650242;85;24484;-82
2022/01/15 04:57:07;;;;;;;;;;;;;;;1.85;100.00;99235.05;1647532;85;20313;-82
2022/01/15 04:59:33;;;;;;;;;;;;;;;1.82;100.00;99239.83;1650116;85;20248;-82
2022/01/15 05:02:00;;;;;;;;;;;;;;;1.84;100.00;99242.38;1645754;85;21888;-83
2022/01/15 05:04:26;;;;;;;;;;;;;;;1.81;100.00;99249.73;1654901;86;25989;-83
2022/01/15 05:06:52;;;;;;;;;;;;;;;1.84;100.00;99255.28;1652186;86;24407;-83
2022/01/15 05:09:19;;;;;;;;;;;;;;;1.88;100.00;99262.06;1653138;84;20314;-82
2022/01/15 05:11:47;;;;;;;;;;;;;;;1.93;100.00;99261.09;1646054;86;24822;-82
2022/01/15 05:14:14;;;;;;;;;;;;;;;1.94;100.00;99264.52;1644151;85;22183;-82
2022/01/15 05:16:40;;;;;;;;;;;;;;;1.93;100.00;99266.25;1646872;86;26044;-83
2022/01/15 05:19:06;;;;;;;;;;;;;;;1.96;100.00;99266.20;1648521;85;24431;-83
2022/01/15 05:21:38;;;;;;;;;;;;;;;1.97;100.00;99270.45;1646305;86;20253;-83
2022/01/15 05:24:02;;;;;;;;;;;;;;;1.97;100.00;99271.74;1644454;86;24788;-83
2022/01/15 05:26:29;;;;;;;;;;;;;;;1.97;100.00;99268.31;1645029;85;22666;-83
2022/01/15 05:28:56;;;;;;;;;;;;;;;2.00;100.00;99266.97;1641760;85;26069;-83
2022/01/15 05:31:24;;;;;;;;;;;;;;;2.01;100.00;99263.51;1650984;84;24437;-83
2022/01/15 05:33:52;;;;;;;;;;;;;;;1.99;100.00;99263.53;1635589;86;20223;-83
2022/01/15 05:36:18;;;;;;;;;;;;;;;1.97;100.00;99267.88;1652533;84;24819;-83
2022/01/15 05:38:44;;;;;;;;;;;;;;;1.95;100.00;99268.80;1653938;86;21963;-83
2022/01/15 05:41:11;;;;;;;;;;;;;;;1.91;100.00;99265.42;1652701;86;26150;-83
2022/01/15 05:43:37;;;;;;;;;;;;;;;1.87;100.00;99271.54;1646894;84;24456;-83
2022/01/15 05:46:03;;;;;;;;;;;;;;;1.83;100.00;99268.63;1651316;85;20222;-83
2022/01/15 05:48:29;;;;;;;;;;;;;;;1.83;100.00;99274.22;1655785;86;26093;-83
2022/01/15 05:50:55;;;;;;;;;;;;;;;1.82;100.00;99268.21;1647557;85;20281;-83
2022/01/15 05:53:21;;;;;;;;;;;;;;;1.81;100.00;99268.23;1652335;84;25982;-83
2022/01/15 05:55:48;;;;;;;;;;;;;;;1.82;100.00;99271.23;1657139;86;24529;-82
2022/01/15 05:58:14;;;;;;;;;;;;;;;1.83;100.00;99272.93;1658273;85;20286;-83
2022/01/15 06:00:40;;;;;;;;;;;;;;;1.83;100.00;99272.50;1659835;84;24815;-83
2022/01/15 06:03:06;;;;;;;;;;;;;;;1.78;100.00;99272.19;1655639;86;21926;-82
2022/01/15 06:05:32;;;;;;;;;;;;;;;1.72;100.00;99274.89;1652910;84;26064;-82
2022/01/15 06:07:58;;;;;;;;;;;;;;;1.68;100.00;99272.83;1655431;84;24414;-82
2022/01/15 06:10:24;;;;;;;;;;;;;;;1.63;100.00;99276.80;1648707;85;20354;-82
2022/01/15 06:12:50;;;;;;;;;;;;;;;1.60;100.00;99264.38;1655296;85;24906;-82
2022/01/15 06:15:16;;;;;;;;;;;;;;;1.58;100.00;99270.03;1650819;86;22034;-83
2022/01/15 06:17:43;;;;;;;;;;;;;;;1.56;100.00;99267.47;1653723;85;26044;-82
2022/01/15 06:20:10;;;;;;;;;;;;;;;1.55;100.00;99267.49;1650964;86;24613;-82
2022/01/15 06:22:36;;;;;;;;;;;;;;;1.51;100.00;99271.88;1653508;86;20512;-82
2022/01/15 06:25:03;;;;;;;;;;;;;;;1.53;100.00;99276.55;1652396;86;24731;-81
2022/01/15 06:27:31;;;;;;;;;;;;;;;1.51;100.00;99274.45;1646012;85;23741;-82
2022/01/15 06:29:57;;;;;;;;;;;;;;;1.51;100.00;99278.77;1653419;85;26013;-81
2022/01/15 06:32:24;;;;;;;;;;;;;;;1.47;100.00;99272.83;1652613;85;25218;-82
2022/01/15 06:34:50;;;;;;;;;;;;;;;1.43;100.00;99274.18;1632607;86;20333;-82
2022/01/15 06:37:16;;;;;;;;;;;;;;;1.36;100.00;99279.92;1654338;86;20218;-82
2022/01/15 06:39:42;;;;;;;;;;;;;;;1.30;100.00;99282.61;1651859;85;21942;-82
2022/01/15 06:42:08;;;;;;;;;;;;;;;1.28;100.00;99288.66;1648002;85;20942;-82
2022/01/15 06:44:35;;;;;;;;;;;;;;;1.29;100.00;99287.80;1655165;84;24352;-82
2022/01/15 06:47:01;;;;;;;;;;;;;;;1.34;100.00;99293.71;1654491;84;20308;-82
2022/01/15 06:49:27;;;;;;;;;;;;;;;1.32;100.00;99294.16;1644348;85;24756;-82
2022/01/15 06:51:53;;;;;;;;;;;;;;;1.31;100.00;99298.94;1653970;84;22032;-82
2022/01/15 06:54:19;;;;;;;;;;;;;;;1.35;100.00;99296.27;1654112;84;26201;-82
2022/01/15 06:56:45;;;;;;;;;;;;;;;1.38;100.00;99296.19;1646178;85;24487;-82
2022/01/15 06:59:11;;;;;;;;;;;;;;;1.40;100.00;99302.63;1652646;84;20215;-82
2022/01/15 07:01:37;;;;;;;;;;;;;;;1.43;100.00;99298.68;1651819;84;24715;-82
2022/01/15 07:04:03;;;;;;;;;;;;;;;1.46;100.00;99303.80;1655251;85;21944;-82
2022/01/15 07:06:29;;;;;;;;;;;;;;;1.47;100.00;99301.63;1648420;85;26322;-83
2022/01/15 07:08:55;;;;;;;;;;;;;;;1.52;100.00;99303.68;1653190;86;24375;-83
2022/01/15 07:11:21;;;;;;;;;;;;;;;1.56;100.00;99311.76;1654300;84;20226;-82
2022/01/15 07:13:47;;;;;;;;;;;;;;;1.56;100.00;99301.00;1655821;86;24813;-82
2022/01/15 07:16:19;;;;;;;;;;;;;;;1.55;100.00;99313.92;1657820;84;22049;-82
2022/01/15 07:18:45;;;;;;;;;;;;;;;1.51;100.00;99313.58;1657844;86;26006;-82
2022/01/15 07:21:12;;;;;;;;;;;;;;;1.49;100.00;99312.75;1651967;86;24457;-82
2022/01/15 07:23:38;;;;;;;;;;;;;;;1.45;100.00;99313.26;1641799;85;20273;-83
2022/01/15 07:26:04;;;;;;;;;;;;;;;1.45;100.00;99318.86;1622330;86;24724;-83
2022/01/15 07:28:31;;;;;;;;;;;;;;;1.47;100.00;99317.11;1654146;85;22154;-83
2022/01/15 07:31:00;;;;;;;;;;;;;;;1.49;100.00;99316.62;1647458;85;25975;-82
2022/01/15 07:33:28;;;;;;;;;;;;;;;1.52;100.00;99317.43;1640853;85;24556;-82
2022/01/15 07:35:56;;;;;;;;;;;;;;;1.53;100.00;99315.23;1655722;85;20367;-83
2022/01/15 07:38:22;;;;;;;;;;;;;;;1.54;100.00;99310.48;1664551;84;24771;-83
2022/01/15 07:40:48;;;;;;;;;;;;;;;1.57;100.00;99309.16;1659601;84;21938;-83
2022/01/15 07:43:15;;;;;;;;;;;;;;;1.57;100.00;99305.29;1656140;86;26002;-83
2022/01/15 07:45:41;;;;;;;;;;;;;;;1.59;100.00;99306.53;1639030;85;24418;-83
2022/01/15 07:48:09;;;;;;;;;;;;;;;1.63;100.00;99317.22;1650347;85;20212;-83
2022/01/15 07:50:35;;;;;;;;;;;;;;;1.63;100.00;99309.05;1612376;87;24955;-83
2022/01/15 07:53:01;;;;;;;;;;;;;;;1.66;100.00;99314.13;1661646;86;22059;-83
2022/01/15 07:55:28;;;;;;;;;;;;;;;1.70;100.00;99316.19;1650299;86;27055;-83
2022/01/15 07:57:54;;;;;;;;;;;;;;;1.74;100.00;99318.29;1643976;85;24503;-83
2022/01/15 08:00:20;;;;;;;;;;;;;;;1.78;100.00;99325.94;1625690;86;20246;-82
2022/01/15 08:02:47;;;;;;;;;;;;;;;1.81;100.00;99323.28;1656357;86;24822;-83
2022/01/15 08:05:13;;;;;;;;;;;;;;;1.85;100.00;99321.06;1659381;84;21940;-83
2022/01/15 08:07:43;;;;;;;;;;;;;;;1.87;100.00;99319.72;1651802;85;26038;-83
2022/01/15 08:10:09;;;;;;;;;;;;;;;1.94;100.00;99322.16;1651237;86;24410;-83
2022/01/15 08:12:42;;;;;;;;;;;;;;;2.00;100.00;99319.89;1639320;86;20233;-83
2022/01/15 08:15:09;;;;;;;;;;;;;;;2.00;100.00;99323.31;1640393;86;24745;-84
2022/01/15 08:17:34;;;;;;;;;;;;;;;2.02;100.00;99326.70;1640070;85;21963;-83
2022/01/15 08:20:01;;;;;;;;;;;;;;;1.98;100.00;99325.07;1623783;86;21101;-83
2022/01/15 08:22:27;;;;;;;;;;;;;;;1.95;100.00;99319.98;1648500;86;24657;-83
2022/01/15 08:24:54;;;;;;;;;;;;;;;1.95;100.00;99329.02;1649045;86;20182;-83
2022/01/15 08:27:20;;;;;;;;;;;;;;;1.98;100.00;99328.09;1660905;85;24906;-83
2022/01/15 08:29:46;;;;;;;;;;;;;;;2.01;100.00;99337.08;1651966;85;22031;-83
2022/01/15 08:32:12;;;;;;;;;;;;;;;2.00;100.00;99337.52;1643815;86;21073;-83
2022/01/15 08:34:38;;;;;;;;;;;;;;;2.02;100.00;99340.04;1633200;85;25331;-83
2022/01/15 08:37:04;;;;;;;;;;;;;;;2.02;100.00;99344.77;1648153;85;20155;-83
2022/01/15 08:39:30;;;;;;;;;;;;;;;2.02;100.00;99346.06;1641282;85;20237;-83
2022/01/15 08:41:57;;;;;;;;;;;;;;;2.03;100.00;99347.77;1648444;85;22506;-83
2022/01/15 08:44:25;;;;;;;;;;;;;;;2.04;100.00;99344.75;1643909;86;25996;-83
2022/01/15 08:46:54;;;;;;;;;;;;;;;2.05;100.00;99348.59;1650047;86;25034;-83
2022/01/15 08:49:20;;;;;;;;;;;;;;;2.11;100.00;99347.62;1649891;85;20242;-83
2022/01/15 08:51:46;;;;;;;;;;;;;;;2.16;100.00;99351.39;1643906;84;24698;-83
2022/01/15 08:54:12;;;;;;;;;;;;;;;2.15;100.00;99358.72;1641229;86;22124;-83
2022/01/15 08:56:38;;;;;;;;;;;;;;;2.17;100.00;99353.94;1622905;86;21042;-83
2022/01/15 08:59:05;;;;;;;;;;;;;;;2.19;100.00;99356.47;1646734;85;24518;-83
2022/01/15 09:01:31;;;;;;;;;;;;;;;2.18;100.00;99345.76;1644118;84;20239;-83
2022/01/15 09:03:57;;;;;;;;;;;;;;;2.16;100.00;99355.25;1646138;85;24734;-83
2022/01/15 09:06:24;;;;;;;;;;;;;;;2.17;100.00;99352.66;1643301;85;22043;-83
2022/01/15 09:08:50;;;;;;;;;;;;;;;2.21;100.00;99347.82;1643153;85;25841;-83
2022/01/15 09:11:16;;;;;;;;;;;;;;;2.20;100.00;99351.72;1649151;86;24420;-84
2022/01/15 09:13:43;;;;;;;;;;;;;;;2.22;100.00;99355.13;1647111;85;20467;-83
2022/01/15 09:16:09;;;;;;;;;;;;;;;2.26;100.00;99359.34;1630699;85;24762;-83
2022/01/15 09:18:37;;;;;;;;;;;;;;;2.30;100.00;99360.96;1635936;85;22051;-84
2022/01/15 09:21:03;;;;;;;;;;;;;;;2.32;100.00;99360.06;1634444;86;26685;-84
2022/01/15 09:23:29;;;;;;;;;;;;;;;2.39;100.00;99364.66;1613097;87;24452;-83
2022/01/15 09:25:58;;;;;;;;;;;;;;;2.39;100.00;99368.53;1621589;87;20554;-84
2022/01/15 09:31:13;;;;;;;;;;;;;;;2.43;100.00;99364.55;1655782;84;22268;-83
2022/01/15 09:33:41;;;;;;;;;;;;;;;2.47;100.00;99364.88;1654856;86;21004;-83
2022/01/15 09:36:07;;;;;;;;;;;;;;;2.51;100.00;99370.81;1656832;84;25241;-83
2022/01/15 09:38:33;;;;;;;;;;;;;;;2.51;100.00;99359.19;1656127;84;20325;-83
2022/01/15 09:40:59;;;;;;;;;;;;;;;2.59;100.00;99361.17;1653114;85;20267;-83
2022/01/15 09:43:26;;;;;;;;;;;;;;;2.60;100.00;99359.00;1655612;85;21967;-84
2022/01/15 09:45:52;;;;;;;;;;;;;;;2.66;100.00;99361.89;1655689;84;25697;-83
2022/01/15 09:48:19;;;;;;;;;;;;;;;2.71;100.00;99366.06;1648925;85;24481;-83
2022/01/15 09:50:46;;;;;;;;;;;;;;;2.74;100.00;99363.39;1622778;86;20505;-83
2022/01/15 09:53:16;;;;;;;;;;;;;;;2.75;100.00;99366.39;1654398;85;24804;-83
2022/01/15 09:55:41;;;;;;;;;;;;;;;2.75;100.00;99376.73;1649422;85;22030;-83
2022/01/15 09:58:07;;;;;;;;;;;;;;;2.75;100.00;99368.13;1656295;84;25891;-83
2022/01/15 10:00:33;;;;;;;;;;;;;;;2.78;100.00;99366.78;1654175;85;24486;-83
2022/01/15 10:02:59;;;;;;;;;;;;;;;2.79;100.00;99358.97;1652438;85;20219;-83
2022/01/15 10:05:25;;;;;;;;;;;;;;;2.79;100.00;99361.55;1648199;85;24821;-84
2022/01/15 10:08:00;;;;;;;;;;;;;;;2.77;100.00;99361.20;1652041;86;22031;-83
2022/01/15 10:10:27;;;;;;;;;;;;;;;2.77;100.00;99360.75;1648934;85;26065;-84
2022/01/15 10:12:53;;;;;;;;;;;;;;;2.79;100.00;99355.09;1654248;85;25297;-83
2022/01/15 10:15:19;;;;;;;;;;;;;;;2.76;100.00;99351.30;1647657;84;20215;-83
2022/01/15 10:17:45;;;;;;;;;;;;;;;2.78;100.00;99344.81;1653924;84;24787;-84
2022/01/15 10:20:17;;;;;;;;;;;;;;;2.83;100.00;99356.73;1620338;86;21775;-83
2022/01/15 10:22:44;;;;;;;;;;;;;;;2.85;100.00;99354.95;1644617;86;27536;-83
2022/01/15 10:25:14;;;;;;;;;;;;;;;2.85;100.00;99349.77;1642146;86;24456;-84
2022/01/15 10:27:44;;;;;;;;;;;;;;;2.89;100.00;99353.97;1642032;85;20355;-83
2022/01/15 10:30:15;;;;;;;;;;;;;;;2.95;100.00;99355.13;1651280;85;25469;-84
2022/01/15 10:33:01;;;;;;;;;;;;;;;3.06;100.00;99357.88;1652514;86;22028;-83
2022/01/15 10:35:30;;;;;;;;;;;;;;;3.10;100.00;99361.67;1655183;85;26776;-85
2022/01/15 10:37:58;;;;;;;;;;;;;;;3.15;100.00;99364.14;1650670;86;24017;-84
2022/01/15 10:40:28;;;;;;;;;;;;;;;3.10;100.00;99364.70;1656508;86;20174;-84
2022/01/15 10:43:16;;;;;;;;;;;;;;;;;;;;;
2022/01/15 10:45:53;;;;;;;;;;;;;;;3.02;100.00;99363.59;1630550;86;20656;-84
2022/01/15 10:48:33;;;;;;;;;;;;;;;3.07;100.00;99358.30;1657213;85;26592;-84
2022/01/15 10:51:07;;;;;;;;;;;;;;;3.12;100.00;99353.41;1656553;85;24509;-85
2022/01/15 10:53:37;;;;;;;;;;;;;;;3.12;100.00;99359.02;1656609;85;20694;-85
2022/01/15 10:56:04;;;;;;;;;;;;;;;3.13;100.00;99358.14;1640721;86;24906;-84
2022/01/15 10:58:31;;;;;;;;;;;;;;;3.12;100.00;99360.32;1655354;85;21991;-84
2022/01/15 11:00:57;;;;;;;;;;;;;;;3.08;100.00;99362.14;1657848;84;26925;-84
2022/01/15 11:03:25;;;;;;;;;;;;;;;3.08;100.00;99361.29;1635888;86;25346;-85
2022/01/15 11:05:52;;;;;;;;;;;;;;;3.07;100.00;99361.73;1656559;85;20227;-86
2022/01/15 11:08:20;;;;;;;;;;;;;;;3.12;100.00;99358.59;1655974;86;24927;-85
2022/01/15 11:10:56;;;;;;;;;;;;;;;3.20;100.00;99353.23;1656779;86;21920;-86
2022/01/15 11:13:26;;;;;;;;;;;;;;;3.18;100.00;99351.97;1656160;85;26081;-85
2022/01/15 11:15:54;;;;;;;;;;;;;;;3.17;100.00;99349.41;1657819;85;24416;-85
2022/01/15 11:18:24;;;;;;;;;;;;;;;3.14;100.00;99346.92;1658562;84;20675;-85
2022/01/15 11:20:53;;;;;;;;;;;;;;;3.17;100.00;99346.39;1657058;86;24629;-86
2022/01/15 11:23:21;;;;;;;;;;;;;;;3.19;100.00;99352.82;1660490;84;22006;-85
2022/01/15 11:25:54;;;;;;;;;;;;;;;3.24;100.00;99347.94;1654713;86;26868;-85
2022/01/15 11:28:25;;;;;;;;;;;;;;;3.31;100.00;99344.31;1657261;85;24545;-85
2022/01/15 11:31:02;;;;;;;;;;;;;;;3.38;100.00;99337.25;1653983;84;20313;-86
2022/01/15 11:33:30;;;;;;;;;;;;;;;3.44;100.00;99342.70;1653012;84;25021;-85
2022/01/15 11:35:56;;;;;;;;;;;;;;;3.49;100.00;99344.72;1654014;85;22025;-85
2022/01/15 11:38:36;;;;;;;;;;;;;;;3.51;100.00;99346.36;1655307;85;25974;-85
2022/01/15 11:41:02;;;;;;;;;;;;;;;3.47;100.00;99339.58;1655109;85;24452;-85
2022/01/15 11:43:31;;;;;;;;;;;;;;;3.45;100.00;99336.61;1655116;86;20327;-85
2022/01/15 11:45:58;;;;;;;;;;;;;;;3.42;100.00;99336.27;1652663;85;24618;-85
2022/01/15 11:48:26;;;;;;;;;;;;;;;3.37;100.00;99342.01;1655147;85;21961;-84
2022/01/15 11:51:06;;;;;;;;;;;;;;;3.27;100.00;99344.44;1661451;84;26047;-85
2022/01/15 11:53:47;;;;;;;;;;;;;;;3.29;100.00;99344.78;1602277;84;25283;-85
2022/01/15 11:56:15;;;;;;;;;;;;;;;3.37;100.00;99347.19;1648708;86;20465;-85
2022/01/15 11:58:41;;;;;;;;;;;;;;;3.46;100.00;99346.93;1652176;84;24947;-85
2022/01/15 12:01:07;;;;;;;;;;;;;;;3.54;100.00;99346.73;1651187;86;20338;-85
2022/01/15 12:03:39;;;;;;;;;;;;;;;3.62;100.00;99340.89;1655593;86;25961;-85
2022/01/15 12:06:05;;;;;;;;;;;;;;;3.67;100.00;99337.28;1654529;85;24506;-85
2022/01/15 12:08:37;;;;;;;;;;;;;;;3.79;100.00;99334.36;1644381;85;20389;-85
2022/01/15 12:11:04;;;;;;;;;;;;;;;3.86;100.00;99329.02;1634803;85;24411;-85
2022/01/15 12:13:37;;;;;;;;;;;;;;;3.93;100.00;99326.19;1632260;86;22816;-85
2022/01/15 12:16:28;;;;;;;;;;;;;;;4.05;100.00;99328.88;1655971;86;26206;-85
2022/01/15 12:18:54;;;;;;;;;;;;;;;4.18;100.00;99322.45;1662672;85;25099;-85
2022/01/15 12:21:39;;;;;;;;;;;;;;;4.32;100.00;99315.09;1655948;85;20301;-85
2022/01/15 12:24:07;;;;;;;;;;;;;;;4.34;100.00;99315.91;1655741;84;24747;-85
2022/01/15 12:26:36;;;;;;;;;;;;;;;4.32;100.00;99313.80;1649400;85;21637;-85
2022/01/15 12:29:02;;;;;;;;;;;;;;;4.32;100.00;99311.21;1655465;85;26037;-85
2022/01/15 12:31:28;;;;;;;;;;;;;;;4.29;100.00;99303.55;1648699;85;24351;-85
2022/01/15 12:34:01;;;;;;;;;;;;;;;4.19;100.00;99302.13;1651311;85;20243;-85
2022/01/15 12:36:27;;;;;;;;;;;;;;;4.15;100.00;99301.36;1646019;86;24917;-84
2022/01/15 12:38:53;;;;;;;;;;;;;;;4.03;100.00;99297.86;1651806;85;21971;-84
2022/01/15 12:41:22;;;;;;;;;;;;;;;4.02;100.00;99297.45;1658081;84;26002;-84
2022/01/15 12:43:50;;;;;;;;;;;;;;;4.04;100.00;99298.68;1655300;85;24430;-85
2022/01/15 12:46:26;;;;;;;;;;;;;;;4.06;100.00;99301.64;1647316;84;20307;-85
2022/01/15 12:48:51;;;;;;;;;;;;;;;4.02;100.00;99300.48;1644603;85;24858;-85
2022/01/15 12:51:20;;;;;;;;;;;;;;;4.02;100.00;99288.84;1654429;85;20288;-85
2022/01/15 12:53:48;;;;;;;;;;;;;;;4.12;100.00;99288.95;1643548;84;25621;-85
2022/01/15 12:56:18;;;;;;;;;;;;;;;4.10;100.00;99288.14;1654876;86;24455;-85
2022/01/15 12:58:44;;;;;;;;;;;;;;;4.09;100.00;99292.47;1634135;86;20239;-85
2022/01/15 13:01:11;;;;;;;;;;;;;;;4.14;100.00;99283.30;1655793;85;24789;-85
2022/01/15 13:03:39;;;;;;;;;;;;;;;4.15;100.00;99285.81;1657563;84;22268;-85
2022/01/15 13:06:05;;;;;;;;;;;;;;;4.16;100.00;99280.19;1657264;86;26700;-85
2022/01/15 13:08:34;;;;;;;;;;;;;;;4.14;100.00;99279.41;1655529;86;24419;-85
2022/01/15 13:11:07;;;;;;;;;;;;;;;4.16;100.00;99278.45;1652915;86;20576;-85
2022/01/15 13:13:38;;;;;;;;;;;;;;;4.19;100.00;99278.38;1658137;86;25410;-85